sensor_id;sensor_type;location;lat;lon;timestamp;pressure;altitude;pressure_sealevel;temperature;humidity
21433;BME280;18592;49.708;10.900;2023-02-28T00:01:01;99617.97;;;2.88;44.24
21433;BME280;18592;49.708;10.900;2023-02-28T00:03:03;99619.16;;;2.85;44.47
21433;BME280;18592;49.708;10.900;2023-02-28T00:05:07;99616.59;;;2.84;44.47
21433;BME280;18592;49.708;10.900;2023-02-28T00:07:18;99612.41;;;2.81;44.41
21433;BME280;18592;49.708;10.900;2023-02-28T00:09:23;99615.28;;;2.80;44.14
21433;BME280;18592;49.708;10.900;2023-02-28T00:11:24;99613.78;;;2.77;44.13
21433;BME280;18592;49.708;10.900;2023-02-28T00:13:26;99615.84;;;2.75;44.38
21433;BME280;18592;49.708;10.900;2023-02-28T00:15:30;99616.69;;;2.76;44.14
21433;BME280;18592;49.708;10.900;2023-02-28T00:17:32;99607.09;;;2.73;44.40
21433;BME280;18592;49.708;10.900;2023-02-28T00:19:34;99612.63;;;2.72;44.47
21433;BME280;18592;49.708;10.900;2023-02-28T00:21:35;99608.28;;;2.71;44.44
21433;BME280;18592;49.708;10.900;2023-02-28T00:23:37;99607.44;;;2.70;43.93
21433;BME280;18592;49.708;10.900;2023-02-28T00:25:42;99612.81;;;2.70;44.36
21433;BME280;18592;49.708;10.900;2023-02-28T00:27:50;99615.00;;;2.67;44.68
21433;BME280;18592;49.708;10.900;2023-02-28T00:29:52;99612.00;;;2.62;44.47
21433;BME280;18592;49.708;10.900;2023-02-28T00:31:55;99613.50;;;2.64;44.32
21433;BME280;18592;49.708;10.900;2023-02-28T00:33:59;99608.66;;;2.60;44.59
21433;BME280;18592;49.708;10.900;2023-02-28T00:36:09;99611.53;;;2.58;44.53
21433;BME280;18592;49.708;10.900;2023-02-28T00:38:12;99603.47;;;2.58;44.31
21433;BME280;18592;49.708;10.900;2023-02-28T00:40:14;99614.22;;;2.58;44.56
21433;BME280;18592;49.708;10.900;2023-02-28T00:42:16;99606.16;;;2.58;44.28
21433;BME280;18592;49.708;10.900;2023-02-28T00:44:21;99608.34;;;2.54;44.89
21433;BME280;18592;49.708;10.900;2023-02-28T00:46:23;99606.50;;;2.55;44.98
21433;BME280;18592;49.708;10.900;2023-02-28T00:48:24;99603.97;;;2.53;44.68
21433;BME280;18592;49.708;10.900;2023-02-28T00:50:26;99599.75;;;2.51;44.47
21433;BME280;18592;49.708;10.900;2023-02-28T00:52:37;99607.00;;;2.50;44.63
21433;BME280;18592;49.708;10.900;2023-02-28T00:54:39;99599.75;;;2.51;44.79
21433;BME280;18592;49.708;10.900;2023-02-28T00:56:41;99606.19;;;2.50;44.68
21433;BME280;18592;49.708;10.900;2023-02-28T00:58:43;99597.06;;;2.51;44.69
21433;BME280;18592;49.708;10.900;2023-02-28T01:00:45;99598.91;;;2.50;44.84
21433;BME280;18592;49.708;10.900;2023-02-28T01:02:50;99597.91;;;2.51;44.61
21433;BME280;18592;49.708;10.900;2023-02-28T01:04:52;99597.06;;;2.51;44.83
21433;BME280;18592;49.708;10.900;2023-02-28T01:06:56;99597.91;;;2.51;45.19
21433;BME280;18592;49.708;10.900;2023-02-28T01:08:58;99588.84;;;2.52;44.68
21433;BME280;18592;49.708;10.900;2023-02-28T01:11:08;99596.22;;;2.50;44.97
21433;BME280;18592;49.708;10.900;2023-02-28T01:13:15;99592.72;;;2.50;44.94
21433;BME280;18592;49.708;10.900;2023-02-28T01:15:16;99589.00;;;2.51;45.21
21433;BME280;18592;49.708;10.900;2023-02-28T01:17:19;99591.69;;;2.51;44.71
21433;BME280;18592;49.708;10.900;2023-02-28T01:19:23;99594.72;;;2.48;44.79
21433;BME280;18592;49.708;10.900;2023-02-28T01:21:31;99590.38;;;2.47;45.11
21433;BME280;18592;49.708;10.900;2023-02-28T01:23:36;99586.66;;;2.48;44.95
21433;BME280;18592;49.708;10.900;2023-02-28T01:25:38;99590.38;;;2.47;44.98
21433;BME280;18592;49.708;10.900;2023-02-28T01:27:39;99585.84;;;2.47;44.77
21433;BME280;18592;49.708;10.900;2023-02-28T01:29:41;99591.22;;;2.47;44.71
21433;BME280;18592;49.708;10.900;2023-02-28T01:31:43;99580.63;;;2.46;44.93
21433;BME280;18592;49.708;10.900;2023-02-28T01:33:45;99582.47;;;2.45;45.26
21433;BME280;18592;49.708;10.900;2023-02-28T01:35:47;99583.31;;;2.46;44.76
21433;BME280;18592;49.708;10.900;2023-02-28T01:37:49;99587.03;;;2.45;45.35
21433;BME280;18592;49.708;10.900;2023-02-28T01:39:51;99579.97;;;2.44;44.75
21433;BME280;18592;49.708;10.900;2023-02-28T01:41:54;99590.72;;;2.44;44.93
21433;BME280;18592;49.708;10.900;2023-02-28T01:44:05;99580.28;;;2.41;44.83
21433;BME280;18592;49.708;10.900;2023-02-28T01:46:07;99581.81;;;2.43;44.55
21433;BME280;18592;49.708;10.900;2023-02-28T01:48:12;99575.75;;;2.41;45.03
21433;BME280;18592;49.708;10.900;2023-02-28T01:50:21;99574.91;;;2.41;44.98
21433;BME280;18592;49.708;10.900;2023-02-28T01:52:25;99577.78;;;2.39;44.78
21433;BME280;18592;49.708;10.900;2023-02-28T01:54:30;99578.63;;;2.40;45.31
21433;BME280;18592;49.708;10.900;2023-02-28T01:56:35;99567.19;;;2.38;44.99
21433;BME280;18592;49.708;10.900;2023-02-28T01:58:39;99569.88;;;2.38;45.04
21433;BME280;18592;49.708;10.900;2023-02-28T02:00:41;99562.84;;;2.37;45.03
21433;BME280;18592;49.708;10.900;2023-02-28T02:02:47;99567.03;;;2.39;45.09
21433;BME280;18592;49.708;10.900;2023-02-28T02:06:59;99568.22;;;2.37;45.04
21433;BME280;18592;49.708;10.900;2023-02-28T02:09:04;99562.53;;;2.32;45.16
21433;BME280;18592;49.708;10.900;2023-02-28T02:11:10;99561.69;;;2.31;45.09
21433;BME280;18592;49.708;10.900;2023-02-28T02:13:29;99562.69;;;2.30;45.28
21433;BME280;18592;49.708;10.900;2023-02-28T02:18:18;99563.53;;;2.23;45.31
21433;BME280;18592;49.708;10.900;2023-02-28T02:35:59;99546.09;;;2.19;45.08
21433;BME280;18592;49.708;10.900;2023-02-28T02:38:13;99543.09;;;2.14;45.27
21433;BME280;18592;49.708;10.900;2023-02-28T02:40:25;99548.66;;;2.12;45.27
21433;BME280;18592;49.708;10.900;2023-02-28T02:42:55;99547.81;;;2.12;45.32
21433;BME280;18592;49.708;10.900;2023-02-28T02:45:03;99538.88;;;2.11;45.14
21433;BME280;18592;49.708;10.900;2023-02-28T02:47:11;99538.22;;;2.09;45.37
21433;BME280;18592;49.708;10.900;2023-02-28T02:49:26;99546.44;;;2.08;45.10
21433;BME280;18592;49.708;10.900;2023-02-28T02:51:30;99548.47;;;2.06;45.08
21433;BME280;18592;49.708;10.900;2023-02-28T02:53:37;99542.94;;;2.07;45.51
21433;BME280;18592;49.708;10.900;2023-02-28T02:55:43;99547.47;;;2.07;45.53
21433;BME280;18592;49.708;10.900;2023-02-28T02:58:10;99542.25;;;2.05;45.67
21433;BME280;18592;49.708;10.900;2023-02-28T03:00:20;99550.84;;;2.01;45.36
21433;BME280;18592;49.708;10.900;2023-02-28T03:02:25;99542.78;;;2.01;45.64
21433;BME280;18592;49.708;10.900;2023-02-28T03:04:33;99547.31;;;2.00;45.55
21433;BME280;18592;49.708;10.900;2023-02-28T03:06:36;99544.63;;;2.00;45.73
21433;BME280;18592;49.708;10.900;2023-02-28T03:08:38;99549.84;;;2.02;45.52
21433;BME280;18592;49.708;10.900;2023-02-28T03:10:42;99549.00;;;2.01;45.29
21433;BME280;18592;49.708;10.900;2023-02-28T03:12:54;99554.56;;;2.00;45.40
21433;BME280;18592;49.708;10.900;2023-02-28T03:15:31;99548.69;;;1.96;45.39
21433;BME280;18592;49.708;10.900;2023-02-28T03:24:11;99553.56;;;1.92;45.65
21433;BME280;18592;49.708;10.900;2023-02-28T03:26:21;99547.38;;;1.92;45.58
21433;BME280;18592;49.708;10.900;2023-02-28T03:30:58;99558.94;;;1.92;45.69
21433;BME280;18592;49.708;10.900;2023-02-28T03:33:16;99558.13;;;1.92;45.51
21433;BME280;18592;49.708;10.900;2023-02-28T03:35:51;99560.81;;;1.92;45.57
21433;BME280;18592;49.708;10.900;2023-02-28T03:38:08;99563.97;;;1.96;45.64
21433;BME280;18592;49.708;10.900;2023-02-28T03:40:17;99567.31;;;1.98;45.64
21433;BME280;18592;49.708;10.900;2023-02-28T03:42:24;99561.94;;;1.98;45.64
21433;BME280;18592;49.708;10.900;2023-02-28T03:44:34;99571.69;;;1.99;45.39
21433;BME280;18592;49.708;10.900;2023-02-28T03:46:43;99563.63;;;1.99;45.19
21433;BME280;18592;49.708;10.900;2023-02-28T03:48:53;99570.84;;;1.98;45.80
21433;BME280;18592;49.708;10.900;2023-02-28T03:50:58;99560.09;;;1.98;45.50
21433;BME280;18592;49.708;10.900;2023-02-28T03:53:07;99566.13;;;2.00;45.29
21433;BME280;18592;49.708;10.900;2023-02-28T03:55:11;99561.94;;;1.98;45.35
21433;BME280;18592;49.708;10.900;2023-02-28T03:57:27;99566.84;;;1.94;45.72
21433;BME280;18592;49.708;10.900;2023-02-28T04:01:40;99563.63;;;1.99;45.72
21433;BME280;18592;49.708;10.900;2023-02-28T04:03:43;99558.44;;;1.97;45.83
21433;BME280;18592;49.708;10.900;2023-02-28T04:05:55;99566.66;;;1.96;45.36
21433;BME280;18592;49.708;10.900;2023-02-28T04:08:07;99567.84;;;1.93;45.35
21433;BME280;18592;49.708;10.900;2023-02-28T04:10:12;99565.16;;;1.93;45.76
21433;BME280;18592;49.708;10.900;2023-02-28T04:12:14;99567.19;;;1.91;45.68
21433;BME280;18592;49.708;10.900;2023-02-28T04:14:16;99571.56;;;1.92;45.97
21433;BME280;18592;49.708;10.900;2023-02-28T04:16:17;99563.50;;;1.92;45.54
21433;BME280;18592;49.708;10.900;2023-02-28T04:18:35;99566.66;;;1.87;45.69
21433;BME280;18592;49.708;10.900;2023-02-28T04:20:42;99575.56;;;1.88;45.99
21433;BME280;18592;49.708;10.900;2023-02-28T04:22:44;99573.72;;;1.88;45.52
21433;BME280;18592;49.708;10.900;2023-02-28T04:24:45;99570.53;;;1.85;45.79
21433;BME280;18592;49.708;10.900;2023-02-28T04:26:50;99572.41;;;1.84;46.04
21433;BME280;18592;49.708;10.900;2023-02-28T04:28:51;99574.06;;;1.85;45.81
21433;BME280;18592;49.708;10.900;2023-02-28T04:30:57;99568.69;;;1.85;45.72
21433;BME280;18592;49.708;10.900;2023-02-28T04:32:59;99570.38;;;1.86;45.86
21433;BME280;18592;49.708;10.900;2023-02-28T04:35:01;99570.38;;;1.86;45.79
21433;BME280;18592;49.708;10.900;2023-02-28T04:37:03;99575.09;;;1.84;45.83
21433;BME280;18592;49.708;10.900;2023-02-28T04:39:17;99572.56;;;1.83;45.65
21433;BME280;18592;49.708;10.900;2023-02-28T04:41:20;99577.09;;;1.82;45.98
21433;BME280;18592;49.708;10.900;2023-02-28T04:43:22;99571.91;;;1.81;45.90
21433;BME280;18592;49.708;10.900;2023-02-28T04:45:24;99576.28;;;1.82;45.45
21433;BME280;18592;49.708;10.900;2023-02-28T04:47:28;99572.56;;;1.83;45.96
21433;BME280;18592;49.708;10.900;2023-02-28T04:49:33;99575.09;;;1.84;45.60
21433;BME280;18592;49.708;10.900;2023-02-28T04:51:35;99578.78;;;1.83;45.77
21433;BME280;18592;49.708;10.900;2023-02-28T04:53:38;99576.44;;;1.80;46.02
21433;BME280;18592;49.708;10.900;2023-02-28T04:55:40;99568.38;;;1.80;46.18
21433;BME280;18592;49.708;10.900;2023-02-28T04:57:41;99568.69;;;1.77;45.93
21433;BME280;18592;49.708;10.900;2023-02-28T04:59:43;99570.72;;;1.83;45.95
21433;BME280;18592;49.708;10.900;2023-02-28T05:01:47;99565.34;;;1.83;46.19
21433;BME280;18592;49.708;10.900;2023-02-28T05:03:49;99569.41;;;1.79;45.95
21433;BME280;18592;49.708;10.900;2023-02-28T05:05:51;99571.06;;;1.80;45.95
21433;BME280;18592;49.708;10.900;2023-02-28T05:07:53;99574.25;;;1.84;45.90
21433;BME280;18592;49.708;10.900;2023-02-28T05:09:56;99572.75;;;1.81;46.01
21433;BME280;18592;49.708;10.900;2023-02-28T05:11:57;99572.56;;;1.83;46.10
21433;BME280;18592;49.708;10.900;2023-02-28T05:13:59;99575.09;;;1.84;45.86
21433;BME280;18592;49.708;10.900;2023-02-28T05:16:01;99578.13;;;1.81;46.30
21433;BME280;18592;49.708;10.900;2023-02-28T05:18:03;99581.31;;;1.77;46.20
21433;BME280;18592;49.708;10.900;2023-02-28T05:20:05;99583.16;;;1.76;46.19
21433;BME280;18592;49.708;10.900;2023-02-28T05:22:16;99577.13;;;1.74;46.28
21433;BME280;18592;49.708;10.900;2023-02-28T05:24:18;99578.78;;;1.75;45.88
21433;BME280;18592;49.708;10.900;2023-02-28T05:26:27;99575.25;;;1.75;46.22
21433;BME280;18592;49.708;10.900;2023-02-28T05:28:32;99578.13;;;1.73;45.92
21433;BME280;18592;49.708;10.900;2023-02-28T05:30:34;99579.97;;;1.73;46.01
21433;BME280;18592;49.708;10.900;2023-02-28T05:32:39;99578.31;;;1.72;46.05
21433;BME280;18592;49.708;10.900;2023-02-28T05:34:47;99585.19;;;1.74;45.99
21433;BME280;18592;49.708;10.900;2023-02-28T05:36:52;99586.19;;;1.73;45.88
21433;BME280;18592;49.708;10.900;2023-02-28T05:38:53;99587.19;;;1.72;46.03
21433;BME280;18592;49.708;10.900;2023-02-28T05:40:55;99594.91;;;1.75;46.28
21433;BME280;18592;49.708;10.900;2023-02-28T05:43:03;99592.22;;;1.75;45.87
21433;BME280;18592;49.708;10.900;2023-02-28T05:45:05;99591.03;;;1.78;46.16
21433;BME280;18592;49.708;10.900;2023-02-28T05:47:08;99592.75;;;1.79;46.00
21433;BME280;18592;49.708;10.900;2023-02-28T05:49:09;99587.38;;;1.79;46.10
21433;BME280;18592;49.708;10.900;2023-02-28T05:51:11;99592.56;;;1.80;45.63
21433;BME280;18592;49.708;10.900;2023-02-28T05:53:13;99590.72;;;1.81;46.17
21433;BME280;18592;49.708;10.900;2023-02-28T05:55:18;99594.25;;;1.81;46.00
21433;BME280;18592;49.708;10.900;2023-02-28T05:57:20;99593.59;;;1.79;46.11
21433;BME280;18592;49.708;10.900;2023-02-28T05:59:25;99593.41;;;1.81;46.17
21433;BME280;18592;49.708;10.900;2023-02-28T06:01:36;99601.66;;;1.79;46.20
21433;BME280;18592;49.708;10.900;2023-02-28T06:03:38;99599.28;;;1.84;45.73
21433;BME280;18592;49.708;10.900;2023-02-28T06:05:41;99601.97;;;1.84;46.13
21433;BME280;18592;49.708;10.900;2023-02-28T06:07:43;99596.41;;;1.86;45.99
21433;BME280;18592;49.708;10.900;2023-02-28T06:09:45;99599.28;;;1.84;46.34
21433;BME280;18592;49.708;10.900;2023-02-28T06:11:47;99597.59;;;1.83;46.10
21433;BME280;18592;49.708;10.900;2023-02-28T06:13:49;99603.63;;;1.85;46.12
21433;BME280;18592;49.708;10.900;2023-02-28T06:15:51;99598.25;;;1.85;46.20
21433;BME280;18592;49.708;10.900;2023-02-28T06:17:53;99602.97;;;1.83;46.39
21433;BME280;18592;49.708;10.900;2023-02-28T06:19:55;99600.94;;;1.85;46.31
21433;BME280;18592;49.708;10.900;2023-02-28T06:21:57;99604.47;;;1.86;46.10
21433;BME280;18592;49.708;10.900;2023-02-28T06:23:59;99599.94;;;1.86;46.33
21433;BME280;18592;49.708;10.900;2023-02-28T06:26:01;99600.94;;;1.85;46.47
21433;BME280;18592;49.708;10.900;2023-02-28T06:28:03;99604.66;;;1.84;46.36
21433;BME280;18592;49.708;10.900;2023-02-28T06:30:06;99603.81;;;1.84;46.37
21433;BME280;18592;49.708;10.900;2023-02-28T06:32:08;99607.50;;;1.83;46.47
21433;BME280;18592;49.708;10.900;2023-02-28T06:34:10;99614.91;;;1.89;46.29
21433;BME280;18592;49.708;10.900;2023-02-28T06:36:16;99616.75;;;1.88;46.45
21433;BME280;18592;49.708;10.900;2023-02-28T06:38:20;99615.06;;;1.87;46.52
21433;BME280;18592;49.708;10.900;2023-02-28T06:40:22;99615.06;;;1.87;46.50
21433;BME280;18592;49.708;10.900;2023-02-28T06:42:24;99622.78;;;1.90;46.45
21433;BME280;18592;49.708;10.900;2023-02-28T06:44:30;99615.56;;;1.91;46.59
21433;BME280;18592;49.708;10.900;2023-02-28T06:46:38;99618.91;;;1.93;46.56
21433;BME280;18592;49.708;10.900;2023-02-28T06:48:42;99621.44;;;1.95;46.28
21433;BME280;18592;49.708;10.900;2023-02-28T06:50:44;99630.19;;;1.97;46.60
21433;BME280;18592;49.708;10.900;2023-02-28T06:52:46;99631.84;;;1.98;46.50
21433;BME280;18592;49.708;10.900;2023-02-28T06:54:48;99626.97;;;2.01;46.46
21433;BME280;18592;49.708;10.900;2023-02-28T06:57:01;99630.31;;;2.03;46.60
21433;BME280;18592;49.708;10.900;2023-02-28T06:59:03;99629.16;;;2.06;47.02
21433;BME280;18592;49.708;10.900;2023-02-28T07:01:06;99636.03;;;2.08;46.77
21433;BME280;18592;49.708;10.900;2023-02-28T07:03:08;99626.78;;;2.11;46.79
21433;BME280;18592;49.708;10.900;2023-02-28T07:05:09;99636.03;;;2.16;46.86
21433;BME280;18592;49.708;10.900;2023-02-28T07:07:11;99628.28;;;2.21;46.56
21433;BME280;18592;49.708;10.900;2023-02-28T07:09:13;99637.53;;;2.27;46.76
21433;BME280;18592;49.708;10.900;2023-02-28T07:11:15;99630.97;;;2.29;47.02
21433;BME280;18592;49.708;10.900;2023-02-28T07:13:21;99635.63;;;2.35;47.14
21433;BME280;18592;49.708;10.900;2023-02-28T07:15:23;99634.09;;;2.41;46.88
21433;BME280;18592;49.708;10.900;2023-02-28T07:17:24;99629.03;;;2.46;47.18
21433;BME280;18592;49.708;10.900;2023-02-28T07:19:26;99633.56;;;2.53;46.89
21433;BME280;18592;49.708;10.900;2023-02-28T07:21:30;99634.88;;;2.66;47.34
21433;BME280;18592;49.708;10.900;2023-02-28T07:23:33;99633.28;;;2.79;47.47
21433;BME280;18592;49.708;10.900;2023-02-28T07:25:35;99640.47;;;2.95;46.92
21433;BME280;18592;49.708;10.900;2023-02-28T07:27:37;99634.16;;;3.10;47.42
21433;BME280;18592;49.708;10.900;2023-02-28T07:29:38;99638.22;;;3.29;47.43
21433;BME280;18592;49.708;10.900;2023-02-28T07:31:43;99637.13;;;3.46;47.67
21433;BME280;18592;49.708;10.900;2023-02-28T07:33:44;99641.84;;;3.67;47.92
21433;BME280;18592;49.708;10.900;2023-02-28T07:35:47;99632.91;;;3.89;47.63
21433;BME280;18592;49.708;10.900;2023-02-28T07:37:49;99633.22;;;4.09;48.17
21433;BME280;18592;49.708;10.900;2023-02-28T07:39:54;99637.28;;;4.27;47.49
21433;BME280;18592;49.708;10.900;2023-02-28T07:41:56;99631.69;;;4.43;47.79
21433;BME280;18592;49.708;10.900;2023-02-28T07:44:03;99634.66;;;4.63;47.95
21433;BME280;18592;49.708;10.900;2023-02-28T07:46:11;99631.41;;;4.82;47.44
21433;BME280;18592;49.708;10.900;2023-02-28T07:48:13;99631.44;;;5.03;48.15
21433;BME280;18592;49.708;10.900;2023-02-28T07:50:15;99641.47;;;5.24;47.63
21433;BME280;18592;49.708;10.900;2023-02-28T07:52:17;99638.53;;;5.40;47.62
21433;BME280;18592;49.708;10.900;2023-02-28T07:54:19;99637.84;;;5.53;nan
21433;BME280;18592;49.708;10.900;2023-02-28T07:56:21;99630.03;;;5.64;47.34
21433;BME280;18592;49.708;10.900;2023-02-28T07:58:23;99621.81;;;5.72;47.09
21433;BME280;18592;49.708;10.900;2023-02-28T08:00:25;99625.41;;;5.79;46.71
21433;BME280;18592;49.708;10.900;2023-02-28T08:02:27;99627.16;;;5.87;46.42
21433;BME280;18592;49.708;10.900;2023-02-28T08:04:32;99627.25;;;5.94;47.09
21433;BME280;18592;49.708;10.900;2023-02-28T08:06:34;99631.03;;;5.99;46.69
21433;BME280;18592;49.708;10.900;2023-02-28T08:08:36;99632.31;;;6.03;46.23
21433;BME280;18592;49.708;10.900;2023-02-28T08:10:37;99631.09;;;6.06;45.98
21433;BME280;18592;49.708;10.900;2023-02-28T08:12:39;99637.97;;;6.08;46.27
21433;BME280;18592;49.708;10.900;2023-02-28T08:14:41;99633.41;;;6.09;46.55
21433;BME280;18592;49.708;10.900;2023-02-28T08:16:43;99636.13;;;6.09;46.07
21433;BME280;18592;49.708;10.900;2023-02-28T08:18:45;99633.41;;;6.09;46.19
21433;BME280;18592;49.708;10.900;2023-02-28T08:20:46;99633.59;;;6.07;45.68
21433;BME280;18592;49.708;10.900;2023-02-28T08:22:48;99633.41;;;6.09;45.51
21433;BME280;18592;49.708;10.900;2023-02-28T08:24:54;99632.56;;;6.08;45.68
21433;BME280;18592;49.708;10.900;2023-02-28T08:26:56;99625.47;;;6.07;45.66
21433;BME280;18592;49.708;10.900;2023-02-28T08:29:23;99624.84;;;6.05;45.47
21433;BME280;18592;49.708;10.900;2023-02-28T08:34:15;99620.25;;;6.06;45.76
21433;BME280;18592;49.708;10.900;2023-02-28T08:36:19;99618.19;;;6.08;45.22
21433;BME280;18592;49.708;10.900;2023-02-28T08:38:22;99609.91;;;6.09;45.71
21433;BME280;18592;49.708;10.900;2023-02-28T08:40:24;99622.00;;;6.13;45.70
21433;BME280;18592;49.708;10.900;2023-02-28T08:42:26;99621.16;;;6.13;45.37
21433;BME280;18592;49.708;10.900;2023-02-28T08:44:28;99622.44;;;6.17;45.82
21433;BME280;18592;49.708;10.900;2023-02-28T08:46:32;99610.38;;;6.19;45.46
21433;BME280;18592;49.708;10.900;2023-02-28T08:48:35;99617.06;;;6.23;45.45
21433;BME280;18592;49.708;10.900;2023-02-28T08:50:39;99618.34;;;6.27;45.91
21433;BME280;18592;49.708;10.900;2023-02-28T08:52:43;99618.56;;;6.32;45.46
21433;BME280;18592;49.708;10.900;2023-02-28T08:54:45;99615.09;;;6.38;45.42
21433;BME280;18592;49.708;10.900;2023-02-28T08:56:47;99616.34;;;6.43;45.52
21433;BME280;18592;49.708;10.900;2023-02-28T08:58:49;99619.97;;;6.50;45.46
21433;BME280;18592;49.708;10.900;2023-02-28T09:00:51;99619.34;;;6.54;45.44
21433;BME280;18592;49.708;10.900;2023-02-28T09:02:53;99619.59;;;6.59;45.57
21433;BME280;18592;49.708;10.900;2023-02-28T09:04:56;99619.84;;;6.64;45.72
21433;BME280;18592;49.708;10.900;2023-02-28T09:06:57;99618.63;;;6.73;45.56
21433;BME280;18592;49.708;10.900;2023-02-28T09:08:59;99621.16;;;6.81;45.57
21433;BME280;18592;49.708;10.900;2023-02-28T09:11:02;99623.50;;;6.91;45.70
21433;BME280;18592;49.708;10.900;2023-02-28T09:13:06;99620.84;;;6.97;45.75
21433;BME280;18592;49.708;10.900;2023-02-28T09:15:10;99613.34;;;7.06;45.54
21433;BME280;18592;49.708;10.900;2023-02-28T09:17:12;99623.00;;;7.15;45.49
21433;BME280;18592;49.708;10.900;2023-02-28T09:19:14;99618.44;;;7.22;45.40
21433;BME280;18592;49.708;10.900;2023-02-28T09:21:18;99616.38;;;7.31;45.46
21433;BME280;18592;49.708;10.900;2023-02-28T09:23:21;99626.00;;;7.40;45.21
21433;BME280;18592;49.708;10.900;2023-02-28T09:25:22;99616.84;;;7.47;45.31
21433;BME280;18592;49.708;10.900;2023-02-28T09:27:24;99629.16;;;7.56;45.33
21433;BME280;18592;49.708;10.900;2023-02-28T09:29:26;99627.53;;;7.68;45.44
21433;BME280;18592;49.708;10.900;2023-02-28T09:31:29;99620.44;;;7.81;45.62
21433;BME280;18592;49.708;10.900;2023-02-28T09:33:31;99614.41;;;7.92;45.32
21433;BME280;18592;49.708;10.900;2023-02-28T09:35:33;99615.22;;;8.05;45.38
21433;BME280;18592;49.708;10.900;2023-02-28T09:37:35;99613.56;;;8.17;45.70
21433;BME280;18592;49.708;10.900;2023-02-28T09:39:37;99608.56;;;8.27;45.34
21433;BME280;18592;49.708;10.900;2023-02-28T09:41:42;99619.00;;;8.44;45.78
21433;BME280;18592;49.708;10.900;2023-02-28T09:43:55;99620.41;;;8.66;46.66
21433;BME280;18592;49.708;10.900;2023-02-28T09:46:11;99617.63;;;8.92;47.49
21433;BME280;18592;49.708;10.900;2023-02-28T09:48:20;99609.56;;;9.23;48.12
21433;BME280;18592;49.708;10.900;2023-02-28T09:52:30;99609.38;;;9.87;48.33
21433;BME280;18592;49.708;10.900;2023-02-28T09:54:33;99606.41;;;10.20;48.32
21433;BME280;18592;49.708;10.900;2023-02-28T09:56:40;99609.06;;;10.51;48.63
21433;BME280;18592;49.708;10.900;2023-02-28T09:58:59;99607.72;;;10.78;47.94
21433;BME280;18592;49.708;10.900;2023-02-28T10:01:25;99608.47;;;11.04;46.96
21433;BME280;18592;49.708;10.900;2023-02-28T10:03:40;99611.78;;;11.24;46.61
21433;BME280;18592;49.708;10.900;2023-02-28T10:05:54;99617.22;;;11.42;46.15
21433;BME280;18592;49.708;10.900;2023-02-28T10:08:02;99605.88;;;11.57;45.79
21433;BME280;18592;49.708;10.900;2023-02-28T10:10:19;99609.31;;;11.70;45.28
21433;BME280;18592;49.708;10.900;2023-02-28T10:12:24;99599.47;;;11.81;45.24
21433;BME280;18592;49.708;10.900;2023-02-28T10:14:29;99605.91;;;11.86;44.72
21433;BME280;18592;49.708;10.900;2023-02-28T10:16:39;99616.59;;;11.88;44.65
21433;BME280;18592;49.708;10.900;2023-02-28T10:18:48;99615.53;;;11.89;43.83
21433;BME280;18592;49.708;10.900;2023-02-28T10:20:53;99611.50;;;11.91;43.54
21433;BME280;18592;49.708;10.900;2023-02-28T10:25:21;99611.03;;;11.94;43.47
21433;BME280;18592;49.708;10.900;2023-02-28T10:27:25;99600.47;;;11.98;43.26
21433;BME280;18592;49.708;10.900;2023-02-28T10:29:31;99595.97;;;12.03;43.07
21433;BME280;18592;49.708;10.900;2023-02-28T10:31:34;99597.28;;;12.13;43.50
21433;BME280;18592;49.708;10.900;2023-02-28T10:33:35;99594.78;;;12.23;43.87
21433;BME280;18592;49.708;10.900;2023-02-28T10:35:37;99595.41;;;12.36;43.93
21433;BME280;18592;49.708;10.900;2023-02-28T10:37:43;99595.19;;;12.49;44.12
21433;BME280;18592;49.708;10.900;2023-02-28T10:39:46;99585.41;;;12.65;43.44
21433;BME280;18592;49.708;10.900;2023-02-28T10:41:48;99589.56;;;12.79;43.21
21433;BME280;18592;49.708;10.900;2023-02-28T10:43:50;99588.72;;;12.90;43.27
21433;BME280;18592;49.708;10.900;2023-02-28T10:55:25;99589.59;;;13.30;41.07
21433;BME280;18592;49.708;10.900;2023-02-28T10:57:30;99577.56;;;13.31;40.85
21433;BME280;18592;49.708;10.900;2023-02-28T10:59:32;99581.13;;;13.32;40.55
21433;BME280;18592;49.708;10.900;2023-02-28T11:01:40;99581.63;;;13.29;40.58
21433;BME280;18592;49.708;10.900;2023-02-28T11:03:43;99582.94;;;13.26;40.52
21433;BME280;18592;49.708;10.900;2023-02-28T11:05:45;99581.75;;;13.22;40.50
21433;BME280;18592;49.708;10.900;2023-02-28T11:07:55;99578.66;;;13.19;39.79
21433;BME280;18592;49.708;10.900;2023-02-28T11:09:58;99580.25;;;13.15;39.71
21433;BME280;18592;49.708;10.900;2023-02-28T11:12:01;99578.81;;;13.12;39.79
21433;BME280;18592;49.708;10.900;2023-02-28T11:14:24;99574.88;;;13.08;39.49
21433;BME280;18592;49.708;10.900;2023-02-28T11:16:35;99575.97;;;13.07;39.93
21433;BME280;18592;49.708;10.900;2023-02-28T11:18:46;99582.41;;;13.13;40.27
21433;BME280;18592;49.708;10.900;2023-02-28T11:20:50;99580.81;;;13.17;39.94
21433;BME280;18592;49.708;10.900;2023-02-28T11:22:54;99583.91;;;13.20;39.62
21433;BME280;18592;49.708;10.900;2023-02-28T11:24:59;99582.81;;;13.21;39.59
21433;BME280;18592;49.708;10.900;2023-02-28T11:27:03;99579.59;;;13.24;39.86
21433;BME280;18592;49.708;10.900;2023-02-28T11:29:17;99560.78;;;13.28;39.90
21433;BME280;18592;49.708;10.900;2023-02-28T11:31:20;99570.28;;;13.37;40.40
21433;BME280;18592;49.708;10.900;2023-02-28T11:36:00;99565.66;;;13.54;40.14
21433;BME280;18592;49.708;10.900;2023-02-28T11:38:08;99571.59;;;13.63;40.29
21433;BME280;18592;49.708;10.900;2023-02-28T11:40:18;99574.75;;;13.71;39.66
21433;BME280;18592;49.708;10.900;2023-02-28T11:45:20;99579.09;;;13.84;39.38
21433;BME280;18592;49.708;10.900;2023-02-28T11:54:57;99563.59;;;14.06;37.66
21433;BME280;18592;49.708;10.900;2023-02-28T11:57:08;99562.34;;;14.14;38.88
21433;BME280;18592;49.708;10.900;2023-02-28T12:02:18;99558.19;;;14.28;38.33
21433;BME280;18592;49.708;10.900;2023-02-28T12:07:16;99555.13;;;14.41;37.84